WZZ5678 LHBP-LGTS
Flight info
| Callsign | WZZ5678 |
|---|---|
| Flight time | N/A |
| Altitude | 35000 |
| Route | FAHAZ DCT KEROP DCT TISAK DCT OKLOP DCT RAXAD/N0367F190 L617 MAKED P36 ALIKO |
| Aircraft | A321/M-SDE1E2E3FGIJ1J4RWXY/LB1 |
Departure
| Time | N/A |
|---|---|
| Airport | Budapest Liszt Ferenc International Airport (LHBP) |
Arrival
| Time | 2026-05-04 15:32 |
|---|---|
| Airport | Thessaloniki Macedonia International Airport (LGTS) |
| Time | Latitude | Longitude | Altitude | Speed | Heading |
|---|---|---|---|---|---|
| 2026-05-04 15:00 | 41.21211 | 22.49771 | 19130 ft | 332 kts | 168° |
| 2026-05-04 15:01 | 41.16688 | 22.50803 | 18574 ft | 322 kts | 168° |
| 2026-05-04 15:01 | 41.14478 | 22.51283 | 18504 ft | 324 kts | 171° |
| 2026-05-04 15:01 | 41.12215 | 22.51421 | 18443 ft | 327 kts | 180° |
| 2026-05-04 15:01 | 41.09949 | 22.51109 | 18371 ft | 327 kts | 187° |
| 2026-05-04 15:02 | 41.07696 | 22.50674 | 18300 ft | 328 kts | 187° |
| 2026-05-04 15:02 | 41.05439 | 22.50247 | 18217 ft | 327 kts | 187° |
| 2026-05-04 15:02 | 41.03190 | 22.49822 | 18143 ft | 326 kts | 187° |
| 2026-05-04 15:02 | 41.00941 | 22.49397 | 18063 ft | 327 kts | 186° |
| 2026-05-04 15:03 | 40.98692 | 22.48972 | 17987 ft | 326 kts | 186° |
| 2026-05-04 15:03 | 40.97204 | 22.48692 | 17934 ft | 326 kts | 186° |
| 2026-05-04 15:03 | 40.94966 | 22.48273 | 17857 ft | 324 kts | 186° |
| 2026-05-04 15:03 | 40.92735 | 22.47869 | 17782 ft | 323 kts | 183° |
| 2026-05-04 15:04 | 40.90519 | 22.48060 | 17704 ft | 318 kts | 163° |
| 2026-05-04 15:04 | 40.88502 | 22.49193 | 17631 ft | 315 kts | 149° |
| 2026-05-04 15:04 | 40.86581 | 22.50595 | 17557 ft | 316 kts | 149° |
| 2026-05-04 15:04 | 40.84616 | 22.52046 | 17488 ft | 332 kts | 149° |
| 2026-05-04 15:05 | 40.82579 | 22.53552 | 17394 ft | 338 kts | 149° |
| 2026-05-04 15:05 | 40.80518 | 22.55069 | 17323 ft | 339 kts | 149° |
| 2026-05-04 15:05 | 40.78454 | 22.56582 | 17248 ft | 339 kts | 149° |
| 2026-05-04 15:05 | 40.76390 | 22.58091 | 17165 ft | 339 kts | 149° |
| 2026-05-04 15:06 | 40.74328 | 22.59598 | 17093 ft | 339 kts | 149° |
| 2026-05-04 15:06 | 40.72267 | 22.61104 | 17013 ft | 338 kts | 149° |
| 2026-05-04 15:06 | 40.70232 | 22.62589 | 16939 ft | 338 kts | 149° |
| 2026-05-04 15:07 | 40.66124 | 22.65580 | 16783 ft | 337 kts | 149° |
| 2026-05-04 15:07 | 40.64073 | 22.67074 | 16703 ft | 337 kts | 149° |
| 2026-05-04 15:07 | 40.62024 | 22.68566 | 16627 ft | 336 kts | 149° |
| 2026-05-04 15:07 | 40.59971 | 22.70060 | 16549 ft | 336 kts | 149° |
| 2026-05-04 15:08 | 40.57942 | 22.71533 | 16002 ft | 330 kts | 149° |
| 2026-05-04 15:08 | 40.55900 | 22.73016 | 14673 ft | 340 kts | 149° |
| 2026-05-04 15:08 | 40.53824 | 22.74529 | 13572 ft | 341 kts | 148° |
| 2026-05-04 15:08 | 40.51757 | 22.76032 | 12487 ft | 338 kts | 149° |
| 2026-05-04 15:09 | 40.49708 | 22.77518 | 11468 ft | 335 kts | 149° |
| 2026-05-04 15:09 | 40.47673 | 22.78989 | 10508 ft | 332 kts | 149° |
| 2026-05-04 15:09 | 40.45701 | 22.80410 | 10103 ft | 312 kts | 149° |
| 2026-05-04 15:10 | 40.42012 | 22.83073 | 9502 ft | 298 kts | 149° |
| 2026-05-04 15:10 | 40.40190 | 22.84392 | 9146 ft | 301 kts | 149° |
| 2026-05-04 15:10 | 40.36509 | 22.87047 | 8212 ft | 304 kts | 149° |
| 2026-05-04 15:11 | 40.34673 | 22.88371 | 7933 ft | 299 kts | 149° |
| 2026-05-04 15:11 | 40.32850 | 22.89685 | 7557 ft | 298 kts | 148° |
| 2026-05-04 15:11 | 40.31065 | 22.90990 | 7178 ft | 297 kts | 145° |
| 2026-05-04 15:11 | 40.29560 | 22.92757 | 6708 ft | 286 kts | 122° |
| 2026-05-04 15:12 | 40.28687 | 22.95033 | 5952 ft | 277 kts | 100° |
| 2026-05-04 15:12 | 40.28500 | 22.97459 | 5490 ft | 258 kts | 83° |
| 2026-05-04 15:12 | 40.28599 | 22.99707 | 5320 ft | 239 kts | 79° |
| 2026-05-04 15:12 | 40.28914 | 23.01804 | 5180 ft | 230 kts | 56° |
| 2026-05-04 15:13 | 40.29986 | 23.03171 | 5092 ft | 209 kts | 21° |
| 2026-05-04 15:13 | 40.31348 | 23.03372 | 4771 ft | 203 kts | 349° |
| 2026-05-04 15:13 | 40.32694 | 23.03001 | 4488 ft | 196 kts | 348° |
| 2026-05-04 15:13 | 40.33987 | 23.02648 | 4200 ft | 184 kts | 347° |
| 2026-05-04 15:14 | 40.35217 | 23.02318 | 3934 ft | 176 kts | 347° |
| 2026-05-04 15:14 | 40.36390 | 23.02006 | 3690 ft | 169 kts | 347° |
| 2026-05-04 15:14 | 40.37519 | 23.01706 | 3459 ft | 162 kts | 346° |
| 2026-05-04 15:14 | 40.38609 | 23.01375 | 3179 ft | 158 kts | 344° |
| 2026-05-04 15:15 | 40.39666 | 23.01038 | 2907 ft | 155 kts | 343° |
| 2026-05-04 15:15 | 40.40690 | 23.00710 | 2658 ft | 150 kts | 343° |
| 2026-05-04 15:15 | 40.41701 | 23.00384 | 2393 ft | 149 kts | 342° |
| 2026-05-04 15:16 | 40.43697 | 22.99745 | 2007 ft | 149 kts | 342° |
| 2026-05-04 15:16 | 40.44710 | 22.99423 | 1749 ft | 150 kts | 341° |
| 2026-05-04 15:16 | 40.46736 | 22.98743 | 1233 ft | 150 kts | 342° |
| 2026-05-04 15:17 | 40.47753 | 22.98416 | 972 ft | 152 kts | 343° |
| 2026-05-04 15:17 | 40.49849 | 22.97771 | 451 ft | 158 kts | 341° |
| 2026-05-04 15:17 | 40.50994 | 22.97412 | 601 ft | 186 kts | 345° |
| 2026-05-04 15:18 | 40.52250 | 22.97019 | 1704 ft | 183 kts | 343° |
| 2026-05-04 15:18 | 40.53536 | 22.96604 | 2297 ft | 200 kts | 343° |
| 2026-05-04 15:18 | 40.54953 | 22.96144 | 2585 ft | 218 kts | 343° |
| 2026-05-04 15:19 | 40.57594 | 22.94278 | 3448 ft | 220 kts | 304° |
| 2026-05-04 15:19 | 40.58088 | 22.92381 | 3504 ft | 222 kts | 280° |
| 2026-05-04 15:19 | 40.58308 | 22.88327 | 3511 ft | 224 kts | 276° |
| 2026-05-04 15:20 | 40.58382 | 22.86282 | 3510 ft | 224 kts | 276° |
| 2026-05-04 15:20 | 40.58455 | 22.84237 | 3511 ft | 224 kts | 275° |
| 2026-05-04 15:20 | 40.58532 | 22.82185 | 3509 ft | 225 kts | 275° |
| 2026-05-04 15:20 | 40.58605 | 22.80132 | 3510 ft | 225 kts | 276° |
| 2026-05-04 15:21 | 40.58521 | 22.78088 | 3707 ft | 233 kts | 255° |
| 2026-05-04 15:21 | 40.57628 | 22.76166 | 3977 ft | 263 kts | 225° |
| 2026-05-04 15:21 | 40.54101 | 22.74734 | 4486 ft | 280 kts | 178° |
| 2026-05-04 15:22 | 40.52148 | 22.74902 | 4736 ft | 282 kts | 175° |
| 2026-05-04 15:22 | 40.50225 | 22.75422 | 4935 ft | 284 kts | 156° |
| 2026-05-04 15:22 | 40.46817 | 22.78030 | 5012 ft | 283 kts | 147° |
| 2026-05-04 15:23 | 40.45122 | 22.79396 | 5016 ft | 287 kts | 146° |
| 2026-05-04 15:23 | 40.43441 | 22.80758 | 5014 ft | 288 kts | 146° |
| 2026-05-04 15:23 | 40.41735 | 22.82135 | 5014 ft | 288 kts | 146° |
| 2026-05-04 15:23 | 40.40024 | 22.83508 | 5014 ft | 288 kts | 147° |
| 2026-05-04 15:24 | 40.36604 | 22.86250 | 5014 ft | 288 kts | 146° |
| 2026-05-04 15:24 | 40.33191 | 22.88991 | 5011 ft | 283 kts | 147° |
| 2026-05-04 15:25 | 40.31557 | 22.90294 | 5010 ft | 267 kts | 147° |
| 2026-05-04 15:25 | 40.30004 | 22.91528 | 5014 ft | 257 kts | 147° |
| 2026-05-04 15:25 | 40.28471 | 22.92748 | 4823 ft | 257 kts | 147° |
| 2026-05-04 15:26 | 40.25796 | 22.95521 | 4371 ft | 236 kts | 120° |
| 2026-05-04 15:26 | 40.25143 | 22.97415 | 4180 ft | 224 kts | 100° |
| 2026-05-04 15:26 | 40.25343 | 23.01292 | 3992 ft | 212 kts | 62° |
| 2026-05-04 15:27 | 40.26130 | 23.02870 | 3996 ft | 206 kts | 39° |
| 2026-05-04 15:27 | 40.28716 | 23.03799 | 4011 ft | 199 kts | 349° |
| 2026-05-04 15:28 | 40.31414 | 23.03167 | 3936 ft | 197 kts | 348° |
| 2026-05-04 15:28 | 40.32768 | 23.02845 | 3924 ft | 198 kts | 348° |
| 2026-05-04 15:28 | 40.35484 | 23.02191 | 3914 ft | 199 kts | 349° |
| 2026-05-04 15:29 | 40.36847 | 23.01866 | 3860 ft | 199 kts | 349° |
| 2026-05-04 15:30 | 40.42115 | 23.00202 | 2788 ft | 190 kts | 343° |
| 2026-05-04 15:30 | 40.45621 | 22.99124 | 1452 ft | 162 kts | 341° |
| 2026-05-04 15:31 | 40.47738 | 22.98429 | 823 ft | 154 kts | 343° |
| 2026-05-04 15:31 | 40.48786 | 22.98100 | 584 ft | 156 kts | 343° |
| 2026-05-04 15:32 | 40.51913 | 22.97113 | 28 ft | 135 kts | 347° |
| 2026-05-04 15:32 | 40.52663 | 22.96916 | 30 ft | 17 kts | 45° |
| 2026-05-04 15:33 | 40.52552 | 22.97094 | 29 ft | 18 kts | 166° |
| 2026-05-04 15:34 | 40.52398 | 22.97347 | 28 ft | 15 kts | 108° |
| 2026-05-04 15:34 | 40.52328 | 22.97448 | 28 ft | 16 kts | 135° |
| 2026-05-04 15:34 | 40.52252 | 22.97587 | 29 ft | 5 kts | 42° |
| 2026-05-04 15:35 | 40.52280 | 22.97622 | 29 ft | 0 kts | 45° |